createdAt,value
2023-05-01T00:01:50.535Z,100.00
2023-05-01T00:03:55.430Z,100.00
2023-05-01T00:06:04.997Z,100.00
2023-05-01T00:08:10.162Z,100.00
2023-05-01T00:10:14.838Z,100.00
2023-05-01T00:12:22.450Z,100.00
2023-05-01T00:14:27.036Z,100.00
2023-05-01T00:16:36.839Z,100.00
2023-05-01T00:18:42.370Z,100.00
2023-05-01T00:20:47.026Z,100.00
2023-05-01T00:22:53.830Z,100.00
2023-05-01T00:24:58.471Z,100.00
2023-05-01T00:27:03.369Z,100.00
2023-05-01T00:29:10.586Z,100.00
2023-05-01T00:31:15.700Z,100.00
2023-05-01T00:33:20.397Z,100.00
2023-05-01T00:35:25.445Z,100.00
2023-05-01T00:37:30.077Z,100.00
2023-05-01T00:39:34.706Z,100.00
2023-05-01T00:41:39.636Z,100.00
2023-05-01T00:43:44.210Z,100.00
2023-05-01T00:45:54.020Z,100.00
2023-05-01T00:47:59.215Z,100.00
2023-05-01T00:50:04.216Z,100.00
2023-05-01T00:52:10.099Z,100.00
2023-05-01T00:54:14.794Z,100.00
2023-05-01T00:56:19.513Z,100.00
2023-05-01T00:58:24.145Z,100.00
2023-05-01T01:00:29.729Z,100.00
2023-05-01T01:02:37.385Z,100.00
2023-05-01T01:04:43.404Z,100.00
2023-05-01T01:06:52.259Z,100.00
2023-05-01T01:09:07.965Z,100.00
2023-05-01T01:11:18.059Z,100.00
2023-05-01T01:13:26.311Z,100.00
2023-05-01T01:15:34.921Z,100.00
2023-05-01T01:17:47.794Z,100.00
2023-05-01T01:20:06.768Z,100.00
2023-05-01T01:22:13.735Z,100.00
2023-05-01T01:24:34.170Z,100.00
2023-05-01T01:26:55.361Z,100.00
2023-05-01T01:29:27.335Z,100.00
2023-05-01T01:31:37.405Z,100.00
2023-05-01T01:34:04.399Z,100.00
2023-05-01T01:36:11.989Z,100.00
2023-05-01T01:38:19.559Z,100.00
2023-05-01T01:40:27.301Z,100.00
2023-05-01T01:42:40.619Z,100.00
2023-05-01T01:44:51.072Z,100.00
2023-05-01T01:46:57.229Z,100.00
2023-05-01T01:49:07.267Z,100.00
2023-05-01T01:51:23.726Z,100.00
2023-05-01T01:53:29.473Z,100.00
2023-05-01T01:55:36.104Z,100.00
2023-05-01T01:57:43.302Z,100.00
2023-05-01T01:59:49.761Z,100.00
2023-05-01T02:01:56.532Z,100.00
2023-05-01T02:04:06.285Z,100.00
2023-05-01T02:06:11.361Z,100.00
2023-05-01T02:08:16.884Z,100.00
2023-05-01T02:10:22.969Z,100.00
2023-05-01T02:12:28.707Z,100.00
2023-05-01T02:14:34.959Z,100.00
2023-05-01T02:16:41.060Z,100.00
2023-05-01T02:18:46.708Z,100.00
2023-05-01T02:20:55.324Z,100.00
2023-05-01T02:23:01.061Z,100.00
2023-05-01T02:25:07.248Z,100.00
2023-05-01T02:27:15.230Z,100.00
2023-05-01T02:29:19.944Z,100.00
2023-05-01T02:31:24.661Z,100.00
2023-05-01T02:33:29.306Z,100.00
2023-05-01T02:35:33.992Z,100.00
2023-05-01T02:37:41.474Z,100.00
2023-05-01T02:39:46.623Z,100.00
2023-05-01T02:41:52.650Z,100.00
2023-05-01T02:44:01.476Z,100.00
2023-05-01T02:46:07.105Z,100.00
2023-05-01T02:48:14.041Z,100.00
2023-05-01T02:50:22.113Z,100.00
2023-05-01T02:52:27.825Z,100.00
2023-05-01T02:54:47.663Z,100.00
2023-05-01T02:56:52.497Z,100.00
2023-05-01T02:58:57.395Z,100.00
2023-05-01T03:01:02.115Z,100.00
2023-05-01T03:03:07.026Z,100.00
2023-05-01T03:05:12.424Z,100.00
2023-05-01T03:07:17.829Z,100.00
2023-05-01T03:09:22.509Z,100.00
2023-05-01T03:11:29.709Z,100.00
2023-05-01T03:13:34.356Z,100.00
2023-05-01T03:15:38.969Z,100.00
2023-05-01T03:17:43.680Z,100.00
2023-05-01T03:19:49.232Z,100.00
2023-05-01T03:21:53.872Z,100.00
2023-05-01T03:23:58.465Z,100.00
2023-05-01T03:26:03.144Z,100.00
2023-05-01T03:28:10.351Z,100.00
2023-05-01T03:30:16.132Z,100.00
2023-05-01T03:32:21.748Z,100.00
2023-05-01T03:34:27.642Z,100.00
2023-05-01T03:36:34.035Z,100.00
2023-05-01T03:38:39.166Z,100.00
2023-05-01T03:40:49.336Z,100.00
2023-05-01T03:43:19.101Z,100.00
2023-05-01T03:45:23.928Z,100.00
2023-05-01T03:47:29.211Z,100.00
2023-05-01T03:49:33.944Z,100.00
2023-05-01T03:51:38.651Z,100.00
2023-05-01T03:53:43.351Z,100.00
2023-05-01T03:55:48.110Z,100.00
2023-05-01T03:57:52.901Z,100.00
2023-05-01T04:00:01.178Z,100.00
2023-05-01T04:02:09.181Z,100.00
2023-05-01T04:04:15.796Z,100.00
2023-05-01T04:06:24.824Z,100.00
2023-05-01T04:08:29.601Z,100.00
2023-05-01T04:10:34.391Z,100.00
2023-05-01T04:12:44.811Z,100.00
2023-05-01T04:14:49.763Z,100.00
2023-05-01T04:16:57.820Z,100.00
2023-05-01T04:19:02.691Z,100.00
2023-05-01T04:21:09.114Z,100.00
2023-05-01T04:23:17.046Z,100.00
2023-05-01T04:25:21.828Z,100.00
2023-05-01T04:27:28.611Z,100.00
2023-05-01T04:29:33.220Z,100.00
2023-05-01T04:31:38.129Z,100.00
2023-05-01T04:33:45.744Z,100.00
2023-05-01T04:35:50.871Z,100.00
2023-05-01T04:37:55.592Z,100.00
2023-05-01T04:40:01.007Z,100.00
2023-05-01T04:42:05.848Z,100.00
2023-05-01T04:44:11.019Z,100.00
2023-05-01T04:46:15.772Z,100.00
2023-05-01T04:48:21.109Z,100.00
2023-05-01T04:50:28.471Z,100.00
2023-05-01T04:52:33.206Z,100.00
2023-05-01T04:54:42.128Z,100.00
2023-05-01T04:56:46.972Z,100.00
2023-05-01T04:58:53.632Z,100.00
2023-05-01T05:01:01.067Z,100.00
2023-05-01T05:03:05.975Z,100.00
2023-05-01T05:05:11.219Z,100.00
2023-05-01T05:07:18.497Z,100.00
2023-05-01T05:09:41.832Z,100.00
2023-05-01T05:11:46.511Z,100.00
2023-05-01T05:13:58.462Z,100.00
2023-05-01T05:16:03.692Z,100.00
2023-05-01T05:18:09.338Z,100.00
2023-05-01T05:20:14.337Z,100.00
2023-05-01T05:22:21.741Z,100.00
2023-05-01T05:24:49.260Z,100.00
2023-05-01T05:26:55.084Z,100.00
2023-05-01T05:28:59.799Z,100.00
2023-05-01T05:31:05.036Z,100.00
2023-05-01T05:33:10.802Z,100.00
2023-05-01T05:35:16.189Z,100.00
2023-05-01T05:37:24.512Z,100.00
2023-05-01T05:39:30.768Z,100.00
2023-05-01T05:41:36.322Z,100.00
2023-05-01T05:43:41.111Z,100.00
2023-05-01T05:45:46.698Z,100.00
2023-05-01T05:47:52.843Z,100.00
2023-05-01T05:49:57.946Z,100.00
2023-05-01T05:52:03.209Z,100.00
2023-05-01T05:54:10.756Z,100.00
2023-05-01T05:56:15.895Z,100.00
2023-05-01T05:58:20.736Z,100.00
2023-05-01T06:00:26.982Z,100.00
2023-05-01T06:02:33.102Z,100.00
2023-05-01T06:04:37.811Z,100.00
2023-05-01T06:06:42.898Z,100.00
2023-05-01T06:08:47.647Z,100.00
2023-05-01T06:10:55.553Z,100.00
2023-05-01T06:13:07.056Z,100.00
2023-05-01T06:15:23.118Z,100.00
2023-05-01T06:17:31.711Z,100.00
2023-05-01T06:19:36.439Z,100.00
2023-05-01T06:21:45.696Z,100.00
2023-05-01T06:23:50.780Z,100.00
2023-05-01T06:26:08.246Z,100.00
2023-05-01T06:28:13.011Z,100.00
2023-05-01T06:30:19.979Z,100.00
2023-05-01T06:32:24.724Z,100.00
2023-05-01T06:34:29.491Z,100.00
2023-05-01T06:36:34.275Z,100.00
2023-05-01T06:38:45.019Z,100.00
2023-05-01T06:40:53.851Z,100.00
2023-05-01T06:43:01.117Z,100.00
2023-05-01T06:45:06.642Z,100.00
2023-05-01T06:47:11.570Z,100.00
2023-05-01T06:49:18.209Z,100.00
2023-05-01T06:51:23.353Z,100.00
2023-05-01T06:53:27.989Z,100.00
2023-05-01T06:55:34.553Z,100.00
2023-05-01T06:57:40.660Z,100.00
2023-05-01T06:59:47.932Z,100.00
2023-05-01T07:01:52.660Z,100.00
2023-05-01T07:03:57.363Z,100.00
2023-05-01T07:06:02.063Z,100.00
2023-05-01T07:08:06.892Z,100.00
2023-05-01T07:10:11.863Z,100.00
2023-05-01T07:12:16.529Z,100.00
2023-05-01T07:14:21.128Z,100.00
2023-05-01T07:16:28.429Z,99.29
2023-05-01T07:18:33.160Z,98.46
2023-05-01T07:20:37.790Z,98.02
2023-05-01T07:22:51.764Z,99.82
2023-05-01T07:24:56.382Z,97.84
2023-05-01T07:27:01.019Z,98.05
2023-05-01T07:29:05.708Z,97.73
2023-05-01T07:31:12.479Z,97.75
2023-05-01T07:33:19.765Z,96.24
2023-05-01T07:35:24.570Z,96.10
2023-05-01T07:37:29.550Z,96.13
2023-05-01T07:39:34.241Z,95.59
2023-05-01T07:41:38.826Z,95.29
2023-05-01T07:43:43.483Z,95.10
2023-05-01T07:45:57.453Z,94.47
2023-05-01T07:48:02.350Z,92.70
2023-05-01T07:50:12.550Z,91.93
2023-05-01T07:52:17.353Z,91.42
2023-05-01T07:54:22.509Z,91.38
2023-05-01T07:56:27.490Z,90.67
2023-05-01T07:58:32.243Z,89.65
2023-05-01T08:00:37.844Z,89.39
2023-05-01T08:02:43.799Z,89.75
2023-05-01T08:04:49.122Z,86.12
2023-05-01T08:06:56.491Z,84.83
2023-05-01T08:09:01.173Z,85.68
2023-05-01T08:11:05.977Z,83.80
2023-05-01T08:13:10.662Z,84.80
2023-05-01T08:15:15.274Z,83.30
2023-05-01T08:17:20.486Z,82.61
2023-05-01T08:19:25.413Z,83.19
2023-05-01T08:21:30.063Z,83.18
2023-05-01T08:23:37.393Z,83.48
2023-05-01T08:25:42.081Z,82.20
2023-05-01T08:27:46.738Z,81.02
2023-05-01T08:29:51.698Z,80.17
2023-05-01T08:31:56.430Z,80.09
2023-05-01T08:34:01.216Z,79.88
2023-05-01T08:36:05.874Z,80.55
2023-05-01T08:38:10.501Z,80.34
2023-05-01T08:40:17.852Z,80.32
2023-05-01T08:42:22.537Z,80.09
2023-05-01T08:44:28.206Z,80.21
2023-05-01T08:46:41.489Z,80.34
2023-05-01T08:48:47.146Z,80.14
2023-05-01T08:50:52.543Z,81.01
2023-05-01T08:52:58.814Z,81.69
2023-05-01T08:55:03.717Z,80.86
2023-05-01T08:57:11.894Z,80.52
2023-05-01T08:59:17.791Z,80.80
2023-05-01T09:01:23.212Z,80.36
2023-05-01T09:03:29.924Z,79.67
2023-05-01T09:05:35.975Z,80.29
2023-05-01T09:07:41.011Z,78.83
2023-05-01T09:09:46.680Z,78.86
2023-05-01T09:11:51.613Z,76.91
2023-05-01T09:13:59.075Z,76.97
2023-05-01T09:16:03.823Z,76.15
2023-05-01T09:18:10.434Z,75.26
2023-05-01T09:20:15.235Z,75.16
2023-05-01T09:22:20.984Z,73.33
2023-05-01T09:24:26.890Z,74.67
2023-05-01T09:26:31.522Z,74.36
2023-05-01T09:28:45.130Z,72.84
2023-05-01T09:30:52.511Z,72.60
2023-05-01T09:33:06.910Z,74.35
2023-05-01T09:35:15.198Z,70.47
2023-05-01T09:37:28.615Z,71.07
2023-05-01T09:39:33.326Z,68.74
2023-05-01T09:41:37.969Z,69.97
2023-05-01T09:43:44.071Z,68.61
2023-05-01T09:46:02.121Z,70.18
2023-05-01T09:48:14.315Z,71.23
2023-05-01T09:50:31.407Z,72.79
2023-05-01T09:52:36.131Z,72.68
2023-05-01T09:54:40.748Z,74.54
2023-05-01T09:56:49.535Z,75.69
2023-05-01T09:58:54.859Z,76.67
2023-05-01T10:01:02.164Z,78.42
2023-05-01T10:03:16.147Z,78.35
2023-05-01T10:05:21.271Z,79.09
2023-05-01T10:07:25.945Z,82.41
2023-05-01T10:09:33.443Z,86.53
2023-05-01T10:11:52.784Z,88.57
2023-05-01T10:14:08.975Z,88.63
2023-05-01T10:16:28.449Z,93.55
2023-05-01T10:18:37.693Z,97.80
2023-05-01T10:20:45.778Z,100.00
2023-05-01T10:22:50.724Z,100.00
2023-05-01T10:24:55.985Z,100.00
2023-05-01T10:27:00.945Z,100.00
2023-05-01T10:29:06.161Z,100.00
2023-05-01T10:31:11.527Z,100.00
2023-05-01T10:33:16.530Z,100.00
2023-05-01T10:35:27.189Z,100.00
2023-05-01T10:37:37.475Z,100.00
2023-05-01T10:39:44.794Z,100.00
2023-05-01T10:42:11.133Z,100.00
2023-05-01T10:44:25.784Z,100.00
2023-05-01T10:46:30.787Z,100.00
2023-05-01T10:48:53.497Z,100.00
2023-05-01T10:51:13.677Z,100.00
2023-05-01T10:53:21.446Z,100.00
2023-05-01T10:55:35.503Z,100.00
2023-05-01T10:57:47.052Z,100.00
2023-05-01T11:00:06.671Z,100.00
2023-05-01T11:02:26.532Z,100.00
2023-05-01T11:04:47.538Z,100.00
2023-05-01T11:07:08.022Z,100.00
2023-05-01T11:09:39.917Z,100.00
2023-05-01T11:11:56.137Z,100.00
2023-05-01T11:14:01.018Z,100.00
2023-05-01T11:16:40.843Z,100.00
2023-05-01T11:18:49.264Z,100.00
2023-05-01T11:20:53.949Z,100.00
2023-05-01T11:22:59.306Z,100.00
2023-05-01T11:25:04.749Z,100.00
2023-05-01T11:27:15.981Z,100.00
2023-05-01T11:29:20.918Z,100.00
2023-05-01T11:31:25.720Z,100.00
2023-05-01T11:33:30.669Z,100.00
2023-05-01T11:35:35.663Z,100.00
2023-05-01T11:37:44.540Z,100.00
2023-05-01T11:39:53.411Z,100.00
2023-05-01T11:42:09.284Z,100.00
2023-05-01T11:44:18.274Z,100.00
2023-05-01T11:46:27.767Z,100.00
2023-05-01T11:48:33.092Z,100.00
2023-05-01T11:50:40.601Z,100.00
2023-05-01T11:52:46.991Z,100.00
2023-05-01T11:54:54.045Z,100.00
2023-05-01T11:57:02.661Z,100.00
2023-05-01T11:59:15.856Z,100.00
2023-05-01T12:01:23.160Z,100.00
2023-05-01T12:03:28.645Z,100.00
2023-05-01T12:05:35.700Z,100.00
2023-05-01T12:07:40.695Z,100.00
2023-05-01T12:09:45.428Z,100.00
2023-05-01T12:11:52.408Z,100.00
2023-05-01T12:13:57.740Z,100.00
2023-05-01T12:16:03.554Z,100.00
2023-05-01T12:18:11.496Z,100.00
2023-05-01T12:20:16.153Z,100.00
2023-05-01T12:22:20.811Z,100.00
2023-05-01T12:24:25.428Z,100.00
2023-05-01T12:26:30.117Z,100.00
2023-05-01T12:28:34.741Z,100.00
2023-05-01T12:30:39.938Z,100.00
2023-05-01T12:32:44.641Z,100.00
2023-05-01T12:34:54.173Z,100.00
2023-05-01T12:36:58.896Z,100.00
2023-05-01T12:39:04.564Z,100.00
2023-05-01T12:41:12.236Z,100.00
2023-05-01T12:43:17.107Z,100.00
2023-05-01T12:45:21.747Z,100.00
2023-05-01T12:47:26.424Z,100.00
2023-05-01T12:49:31.841Z,100.00
2023-05-01T12:51:42.470Z,100.00
2023-05-01T12:53:47.327Z,100.00
2023-05-01T12:55:52.960Z,100.00
2023-05-01T12:57:57.796Z,100.00
2023-05-01T13:00:03.208Z,100.00
2023-05-01T13:02:08.625Z,100.00
2023-05-01T13:04:13.605Z,100.00
2023-05-01T13:06:18.325Z,100.00
2023-05-01T13:08:32.486Z,100.00
2023-05-01T13:10:37.202Z,100.00
2023-05-01T13:12:47.613Z,100.00
2023-05-01T13:14:53.084Z,100.00
2023-05-01T13:16:57.926Z,100.00
2023-05-01T13:19:05.886Z,100.00
2023-05-01T13:21:12.346Z,100.00
2023-05-01T13:23:19.822Z,100.00
2023-05-01T13:25:27.479Z,100.00
2023-05-01T13:27:32.628Z,100.00
2023-05-01T13:29:39.842Z,100.00
2023-05-01T13:31:45.892Z,100.00
2023-05-01T13:33:53.673Z,100.00
2023-05-01T13:35:59.555Z,100.00
2023-05-01T13:38:06.410Z,100.00
2023-05-01T13:40:12.051Z,100.00
2023-05-01T13:42:23.471Z,100.00
2023-05-01T13:44:29.453Z,100.00
2023-05-01T13:46:34.388Z,100.00
2023-05-01T13:48:39.188Z,100.00
2023-05-01T13:50:49.845Z,100.00
2023-05-01T13:52:55.753Z,100.00
2023-05-01T13:55:06.021Z,100.00
2023-05-01T13:57:11.007Z,100.00
2023-05-01T13:59:18.363Z,100.00
2023-05-01T14:01:23.708Z,100.00
2023-05-01T14:03:28.874Z,100.00
2023-05-01T14:05:33.511Z,100.00
2023-05-01T14:07:42.815Z,100.00
2023-05-01T14:09:48.420Z,100.00
2023-05-01T14:11:54.190Z,100.00
2023-05-01T14:14:01.788Z,100.00
2023-05-01T14:16:13.417Z,100.00
2023-05-01T14:18:19.733Z,100.00
2023-05-01T14:20:27.855Z,100.00
2023-05-01T14:22:32.587Z,100.00
2023-05-01T14:24:38.710Z,100.00
2023-05-01T14:26:46.797Z,100.00
2023-05-01T14:28:51.746Z,100.00
2023-05-01T14:30:56.449Z,100.00
2023-05-01T14:33:04.197Z,100.00
2023-05-01T14:35:11.846Z,100.00
2023-05-01T14:37:17.180Z,100.00
2023-05-01T14:39:22.048Z,100.00
2023-05-01T14:41:26.787Z,100.00
2023-05-01T14:43:31.702Z,100.00
2023-05-01T14:45:38.776Z,100.00
2023-05-01T14:47:44.103Z,100.00
2023-05-01T14:49:53.929Z,100.00
2023-05-01T14:51:58.691Z,100.00
2023-05-01T14:54:03.761Z,100.00
2023-05-01T14:56:08.924Z,100.00
2023-05-01T14:58:13.688Z,100.00
2023-05-01T15:00:19.172Z,100.00
2023-05-01T15:02:23.934Z,100.00
2023-05-01T15:04:28.984Z,100.00
2023-05-01T15:06:36.470Z,100.00
2023-05-01T15:08:41.336Z,100.00
2023-05-01T15:10:46.276Z,100.00
2023-05-01T15:12:54.570Z,100.00
2023-05-01T15:14:59.382Z,100.00
2023-05-01T15:17:04.211Z,100.00
2023-05-01T15:19:08.889Z,100.00
2023-05-01T15:21:13.554Z,100.00
2023-05-01T15:23:20.814Z,100.00
2023-05-01T15:25:25.425Z,100.00
2023-05-01T15:27:30.169Z,100.00
2023-05-01T15:29:34.946Z,100.00
2023-05-01T15:31:41.920Z,100.00
2023-05-01T15:33:46.880Z,100.00
2023-05-01T15:35:52.929Z,100.00
2023-05-01T15:37:57.840Z,100.00
2023-05-01T15:40:05.679Z,100.00
2023-05-01T15:42:10.323Z,100.00
2023-05-01T15:44:15.233Z,100.00
2023-05-01T15:46:20.122Z,100.00
2023-05-01T15:48:24.887Z,100.00
2023-05-01T15:50:29.911Z,100.00
2023-05-01T15:52:35.177Z,100.00
2023-05-01T15:54:42.229Z,100.00
2023-05-01T15:56:49.467Z,100.00
2023-05-01T15:58:54.095Z,100.00
2023-05-01T16:00:58.769Z,100.00
2023-05-01T16:03:04.704Z,100.00
2023-05-01T16:05:10.252Z,100.00
2023-05-01T16:07:15.576Z,100.00
2023-05-01T16:09:20.375Z,100.00
2023-05-01T16:11:25.433Z,100.00
2023-05-01T16:13:32.737Z,100.00
2023-05-01T16:15:37.406Z,100.00
2023-05-01T16:17:45.606Z,100.00
2023-05-01T16:19:52.570Z,100.00
2023-05-01T16:21:57.245Z,100.00
2023-05-01T16:24:04.152Z,100.00
2023-05-01T16:26:09.109Z,100.00
2023-05-01T16:28:14.346Z,100.00
2023-05-01T16:30:24.731Z,100.00
2023-05-01T16:32:29.539Z,100.00
2023-05-01T16:34:34.336Z,100.00
2023-05-01T16:36:42.680Z,100.00
2023-05-01T16:38:47.981Z,100.00
2023-05-01T16:40:52.649Z,100.00
2023-05-01T16:43:01.011Z,100.00
2023-05-01T16:45:06.616Z,100.00
2023-05-01T16:47:16.798Z,100.00
2023-05-01T16:49:21.407Z,100.00
2023-05-01T16:51:26.543Z,100.00
2023-05-01T16:53:32.315Z,100.00
2023-05-01T16:55:36.943Z,100.00
2023-05-01T16:57:43.719Z,100.00
2023-05-01T16:59:49.116Z,100.00
2023-05-01T17:01:54.047Z,100.00
2023-05-01T17:04:01.586Z,100.00
2023-05-01T17:06:09.187Z,100.00
2023-05-01T17:08:14.052Z,100.00
2023-05-01T17:10:18.778Z,100.00
2023-05-01T17:12:23.796Z,100.00
2023-05-01T17:14:29.005Z,100.00
2023-05-01T17:16:33.780Z,100.00
2023-05-01T17:18:41.448Z,100.00
2023-05-01T17:20:48.887Z,100.00
2023-05-01T17:22:53.701Z,100.00
2023-05-01T17:25:02.392Z,100.00
2023-05-01T17:27:07.911Z,100.00
2023-05-01T17:29:12.525Z,100.00
2023-05-01T17:31:18.793Z,100.00
2023-05-01T17:33:25.161Z,100.00
2023-05-01T17:35:29.861Z,100.00
2023-05-01T17:37:39.979Z,100.00
2023-05-01T17:39:44.821Z,100.00
2023-05-01T17:41:49.468Z,100.00
2023-05-01T17:43:55.382Z,100.00
2023-05-01T17:46:00.115Z,100.00
2023-05-01T17:48:04.766Z,100.00
2023-05-01T17:50:10.202Z,100.00
2023-05-01T17:52:15.218Z,100.00
2023-05-01T17:54:22.592Z,100.00
2023-05-01T17:56:28.455Z,100.00
2023-05-01T17:58:33.307Z,100.00
2023-05-01T18:00:38.027Z,100.00
2023-05-01T18:02:45.187Z,100.00
2023-05-01T18:04:51.229Z,100.00
2023-05-01T18:06:56.557Z,100.00
2023-05-01T18:09:01.501Z,100.00
2023-05-01T18:11:08.960Z,100.00
2023-05-01T18:13:13.576Z,100.00
2023-05-01T18:15:22.570Z,100.00
2023-05-01T18:17:28.051Z,100.00
2023-05-01T18:19:32.735Z,100.00
2023-05-01T18:21:37.357Z,100.00
2023-05-01T18:23:42.033Z,100.00
2023-05-01T18:25:46.679Z,100.00
2023-05-01T18:27:55.311Z,100.00
2023-05-01T18:30:00.172Z,100.00
2023-05-01T18:32:05.223Z,100.00
2023-05-01T18:34:10.387Z,100.00
2023-05-01T18:36:14.970Z,100.00
2023-05-01T18:38:19.646Z,100.00
2023-05-01T18:40:24.586Z,100.00
2023-05-01T18:42:29.239Z,100.00
2023-05-01T18:44:36.486Z,100.00
2023-05-01T18:46:41.576Z,100.00
2023-05-01T18:48:46.460Z,100.00
2023-05-01T18:51:06.724Z,100.00
2023-05-01T18:53:12.929Z,100.00
2023-05-01T18:55:17.547Z,100.00
2023-05-01T18:57:22.756Z,100.00
2023-05-01T18:59:31.134Z,100.00
2023-05-01T19:01:38.994Z,100.00
2023-05-01T19:03:43.616Z,100.00
2023-05-01T19:05:48.577Z,100.00
2023-05-01T19:07:55.414Z,100.00
2023-05-01T19:10:00.279Z,100.00
2023-05-01T19:12:05.318Z,100.00
2023-05-01T19:14:09.958Z,100.00
2023-05-01T19:16:14.730Z,100.00
2023-05-01T19:18:22.359Z,100.00
2023-05-01T19:20:27.145Z,100.00
2023-05-01T19:22:31.793Z,100.00
2023-05-01T19:24:36.516Z,100.00
2023-05-01T19:26:41.151Z,100.00
2023-05-01T19:28:45.787Z,100.00
2023-05-01T19:30:50.495Z,100.00
2023-05-01T19:32:55.173Z,100.00
2023-05-01T19:35:02.440Z,100.00
2023-05-01T19:37:07.236Z,100.00
2023-05-01T19:39:12.868Z,100.00
2023-05-01T19:41:18.011Z,100.00
2023-05-01T19:43:22.666Z,100.00
2023-05-01T19:45:27.369Z,100.00
2023-05-01T19:47:32.128Z,100.00
2023-05-01T19:49:36.980Z,100.00
2023-05-01T19:51:44.490Z,100.00
2023-05-01T19:53:49.186Z,100.00
2023-05-01T19:55:53.832Z,100.00
2023-05-01T19:57:58.423Z,100.00
2023-05-01T20:00:03.264Z,100.00
2023-05-01T20:02:14.754Z,100.00
2023-05-01T20:04:19.430Z,100.00
2023-05-01T20:06:24.387Z,100.00
2023-05-01T20:08:31.601Z,100.00
2023-05-01T20:10:36.600Z,100.00
2023-05-01T20:12:42.269Z,100.00
2023-05-01T20:14:46.978Z,100.00
2023-05-01T20:16:53.281Z,100.00
2023-05-01T20:18:58.034Z,100.00
2023-05-01T20:21:02.902Z,100.00
2023-05-01T20:23:13.884Z,100.00
2023-05-01T20:25:21.201Z,100.00
2023-05-01T20:27:26.419Z,100.00
2023-05-01T20:29:31.025Z,100.00
2023-05-01T20:31:36.276Z,100.00
2023-05-01T20:33:40.979Z,100.00
2023-05-01T20:35:45.596Z,100.00
2023-05-01T20:37:50.313Z,100.00
2023-05-01T20:39:54.971Z,100.00
2023-05-01T20:42:02.242Z,100.00
2023-05-01T20:44:07.106Z,100.00
2023-05-01T20:46:11.751Z,100.00
2023-05-01T20:48:16.449Z,100.00
2023-05-01T20:50:21.115Z,100.00
2023-05-01T20:52:25.824Z,100.00
2023-05-01T20:54:32.648Z,100.00
2023-05-01T20:56:37.374Z,100.00
2023-05-01T20:58:44.572Z,100.00
2023-05-01T21:00:49.194Z,100.00
2023-05-01T21:02:54.187Z,100.00
2023-05-01T21:04:58.909Z,100.00
2023-05-01T21:07:03.547Z,100.00
2023-05-01T21:09:11.304Z,100.00
2023-05-01T21:11:15.949Z,100.00
2023-05-01T21:13:21.370Z,100.00
2023-05-01T21:15:28.836Z,100.00
2023-05-01T21:17:35.003Z,100.00
2023-05-01T21:19:44.463Z,100.00
2023-05-01T21:21:49.230Z,100.00
2023-05-01T21:23:54.222Z,100.00
2023-05-01T21:25:59.345Z,100.00
2023-05-01T21:28:06.228Z,100.00
2023-05-01T21:30:11.703Z,100.00
2023-05-01T21:32:19.338Z,100.00
2023-05-01T21:34:23.985Z,100.00
2023-05-01T21:36:28.744Z,100.00
2023-05-01T21:38:33.452Z,100.00
2023-05-01T21:40:39.553Z,100.00
2023-05-01T21:42:44.175Z,100.00
2023-05-01T21:44:48.889Z,100.00
2023-05-01T21:46:55.756Z,100.00
2023-05-01T21:49:03.201Z,100.00
2023-05-01T21:51:08.119Z,100.00
2023-05-01T21:53:12.791Z,100.00
2023-05-01T21:55:20.179Z,100.00
2023-05-01T21:57:24.838Z,100.00
2023-05-01T21:59:30.822Z,100.00
2023-05-01T22:01:35.578Z,100.00
2023-05-01T22:03:42.519Z,100.00
2023-05-01T22:05:49.950Z,100.00
2023-05-01T22:07:55.350Z,100.00
2023-05-01T22:10:00.349Z,100.00
2023-05-01T22:12:05.358Z,100.00
2023-05-01T22:14:09.983Z,100.00
2023-05-01T22:16:15.599Z,100.00
2023-05-01T22:18:20.334Z,100.00
2023-05-01T22:20:25.080Z,100.00
2023-05-01T22:22:32.338Z,100.00
2023-05-01T22:24:37.093Z,100.00
2023-05-01T22:26:41.919Z,100.00
2023-05-01T22:28:46.753Z,100.00
2023-05-01T22:30:51.497Z,100.00
2023-05-01T22:32:56.233Z,100.00
2023-05-01T22:35:00.978Z,100.00
2023-05-01T22:37:05.576Z,100.00
2023-05-01T22:39:12.834Z,100.00
2023-05-01T22:41:17.994Z,100.00
2023-05-01T22:43:23.781Z,100.00
2023-05-01T22:45:28.397Z,100.00
2023-05-01T22:47:33.088Z,100.00
2023-05-01T22:49:37.816Z,100.00
2023-05-01T22:51:42.473Z,100.00
2023-05-01T22:53:47.065Z,100.00
2023-05-01T22:55:54.468Z,100.00
2023-05-01T22:57:59.055Z,100.00
2023-05-01T23:00:03.969Z,100.00
2023-05-01T23:02:08.929Z,100.00
2023-05-01T23:04:14.394Z,100.00
2023-05-01T23:06:19.349Z,100.00
2023-05-01T23:08:24.198Z,100.00
2023-05-01T23:10:31.141Z,100.00
2023-05-01T23:12:42.819Z,100.00
2023-05-01T23:14:48.344Z,100.00
2023-05-01T23:16:52.948Z,100.00
2023-05-01T23:18:58.421Z,100.00
2023-05-01T23:21:03.524Z,100.00
2023-05-01T23:23:08.590Z,100.00
2023-05-01T23:25:15.443Z,100.00
2023-05-01T23:27:22.653Z,100.00
2023-05-01T23:29:29.959Z,100.00
2023-05-01T23:31:34.710Z,100.00
2023-05-01T23:33:39.963Z,100.00
2023-05-01T23:35:44.551Z,100.00
2023-05-01T23:37:49.517Z,100.00
2023-05-01T23:39:54.286Z,100.00
2023-05-01T23:41:58.861Z,100.00
2023-05-01T23:44:03.475Z,100.00
2023-05-01T23:46:11.365Z,100.00
2023-05-01T23:48:16.151Z,100.00
2023-05-01T23:50:21.610Z,100.00
2023-05-01T23:52:26.272Z,100.00
2023-05-01T23:54:31.722Z,100.00
2023-05-01T23:56:36.325Z,100.00
2023-05-01T23:58:41.039Z,100.00
